Time;durP1;ratioP1;P1;durP2;ratioP2;P2;SDS_P1;SDS_P2;PMS_P1;PMS_P2;Temp;Humidity;BMP_temperature;BMP_pressure;BME280_temperature;BME280_humidity;BME280_pressure;Samples;Min_cycle;Max_cycle;Signal;HPM_P1;HPM_P2
2023/03/25 00:00:58;;;;;;;;;;;;;;;4.57;86.15;93195.75;5023625;28;19962;-38
2023/03/25 00:03:25;;;;;;;;;;;;;;;4.58;85.45;93202.72;5022575;28;20011;-37
2023/03/25 00:05:51;;;;;;;;;;;;;;;4.52;85.51;93200.06;5021151;28;20338;-37
2023/03/25 00:08:16;;;;;;;;;;;;;;;4.54;85.66;93192.06;5024187;28;19934;-37
2023/03/25 00:10:41;;;;;;;;;;;;;;;4.70;84.83;93186.91;5028562;28;19943;-37
2023/03/25 00:13:07;;;;;;;;;;;;;;;4.46;85.11;93174.75;5019483;28;19941;-38
2023/03/25 00:15:32;;;;;;;;;;;;;;;4.46;84.89;93174.03;5021622;28;20400;-37
2023/03/25 00:18:00;;;;;;;;;;;;;;;4.70;84.03;93175.97;5022583;28;19945;-38
2023/03/25 00:20:26;;;;;;;;;;;;;;;4.66;83.98;93170.78;5021446;28;19929;-37
2023/03/25 00:22:52;;;;;;;;;;;;;;;4.49;84.68;93168.28;5022190;28;20018;-37
2023/03/25 00:25:19;;;;;;;;;;;;;;;4.33;85.27;93168.47;5021159;28;19927;-37
2023/03/25 00:27:45;;;;;;;;;;;;;;;4.44;84.58;93165.63;5026156;28;19931;-37
2023/03/25 00:30:11;;;;;;;;;;;;;;;4.37;84.30;93161.47;5022933;28;19930;-37
2023/03/25 00:32:38;;;;;;;;;;;;;;;4.07;86.20;93158.06;5020420;28;19943;-38
2023/03/25 00:35:04;;;;;;;;;;;;;;;4.02;85.67;93164.34;5022103;28;19940;-37
2023/03/25 00:37:30;;;;;;;;;;;;;;;3.91;85.71;93158.25;5023976;28;19939;-37
2023/03/25 00:39:55;;;;;;;;;;;;;;;4.16;85.22;93167.94;5026520;28;20038;-37
2023/03/25 00:42:24;;;;;;;;;;;;;;;3.89;86.43;93156.06;5026810;28;19939;-38
2023/03/25 00:44:50;;;;;;;;;;;;;;;3.90;86.90;93157.53;5023419;28;19949;-37
2023/03/25 00:47:17;;;;;;;;;;;;;;;3.91;87.03;93158.25;5021358;28;19935;-37
2023/03/25 00:49:42;;;;;;;;;;;;;;;3.93;86.81;93151.03;5024528;28;19953;-37
2023/03/25 00:52:08;;;;;;;;;;;;;;;3.90;86.31;93152.06;5014758;28;19933;-37
2023/03/25 00:54:33;;;;;;;;;;;;;;;4.00;85.94;93144.28;5021449;28;19926;-38
2023/03/25 00:56:59;;;;;;;;;;;;;;;3.89;86.41;93142.41;5029638;28;19944;-37
2023/03/25 00:59:24;;;;;;;;;;;;;;;3.87;86.29;93144.91;5025544;28;19949;-38
2023/03/25 01:01:52;;;;;;;;;;;;;;;3.72;85.88;93136.38;5026585;28;20354;-38
2023/03/25 01:04:18;;;;;;;;;;;;;;;3.73;85.96;93141.31;5035570;28;20027;-37
2023/03/25 01:06:43;;;;;;;;;;;;;;;3.53;86.48;93138.31;5028656;28;19938;-37
2023/03/25 01:09:12;;;;;;;;;;;;;;;3.54;86.58;93131.59;5022075;28;19946;-37
2023/03/25 01:11:37;;;;;;;;;;;;;;;3.49;87.36;93132.38;5024093;28;19937;-37
2023/03/25 01:14:04;;;;;;;;;;;;;;;3.44;88.26;93131.19;5018245;28;19945;-37
2023/03/25 01:16:29;;;;;;;;;;;;;;;3.32;88.76;93126.31;5019878;28;20315;-37
2023/03/25 01:18:54;;;;;;;;;;;;;;;3.58;87.99;93118.38;5020833;28;19968;-37
2023/03/25 01:21:20;;;;;;;;;;;;;;;3.44;87.08;93117.56;5022052;28;20427;-37
2023/03/25 01:23:45;;;;;;;;;;;;;;;3.35;87.88;93114.41;5016080;28;19939;-37
2023/03/25 01:26:11;;;;;;;;;;;;;;;3.48;88.88;93117.25;5021288;28;20027;-37
2023/03/25 01:28:37;;;;;;;;;;;;;;;3.59;87.38;93106.97;5022602;28;20735;-37
2023/03/25 01:31:03;;;;;;;;;;;;;;;3.72;86.02;93109.06;5022937;28;19932;-37
2023/03/25 01:33:29;;;;;;;;;;;;;;;3.33;87.21;93106.00;5013476;28;19954;-37
2023/03/25 01:35:54;;;;;;;;;;;;;;;3.25;88.38;93099.63;5019976;28;19931;-37
2023/03/25 01:38:20;;;;;;;;;;;;;;;3.24;87.78;93095.41;5018158;28;19952;-37
2023/03/25 01:40:45;;;;;;;;;;;;;;;3.29;87.09;93092.59;5021411;28;19939;-37
2023/03/25 01:43:12;;;;;;;;;;;;;;;3.11;88.08;93098.00;5023853;28;19943;-37
2023/03/25 01:45:38;;;;;;;;;;;;;;;3.14;87.70;93086.09;5023523;28;19938;-37
2023/03/25 01:48:31;;;;;;;;;;;;;;;3.29;87.96;93094.63;5022154;28;20000;-37
2023/03/25 01:51:09;;;;;;;;;;;;;;;3.35;86.34;93087.13;5017194;28;19932;-37
2023/03/25 01:53:34;;;;;;;;;;;;;;;3.10;86.84;93078.16;5056104;28;19926;-37
2023/03/25 01:56:01;;;;;;;;;;;;;;;3.03;88.10;93084.19;5026015;28;19927;-38
2023/03/25 01:58:27;;;;;;;;;;;;;;;3.04;87.55;93082.94;5055642;28;19943;-37
2023/03/25 02:00:53;;;;;;;;;;;;;;;2.91;88.99;93078.09;5056392;28;19969;-38
2023/03/25 02:03:19;;;;;;;;;;;;;;;3.16;88.42;93065.22;5059449;28;19939;-38
2023/03/25 02:05:55;;;;;;;;;;;;;;;3.10;86.89;93077.44;5020709;28;19954;-37
2023/03/25 02:08:21;;;;;;;;;;;;;;;2.94;87.75;93070.88;5023426;28;19930;-37
2023/03/25 02:10:46;;;;;;;;;;;;;;;3.06;86.37;93070.25;5024302;28;19931;-37
2023/03/25 02:13:12;;;;;;;;;;;;;;;3.16;85.55;93069.94;5021330;28;19936;-38
2023/03/25 02:15:40;;;;;;;;;;;;;;;3.06;85.53;93072.25;5025515;28;20502;-37
2023/03/25 02:18:26;;;;;;;;;;;;;;;3.10;85.39;93067.25;5054870;28;19950;-37
2023/03/25 02:21:02;;;;;;;;;;;;;;;2.85;86.72;93073.91;5057641;28;19946;-38
2023/03/25 02:23:40;;;;;;;;;;;;;;;2.66;87.34;93075.81;5022736;28;19930;-38
2023/03/25 02:26:24;;;;;;;;;;;;;;;2.76;87.60;93072.25;5027222;28;19927;-37
2023/03/25 02:28:51;;;;;;;;;;;;;;;2.62;88.28;93076.06;5024388;28;20692;-37
2023/03/25 02:31:27;;;;;;;;;;;;;;;2.59;88.06;93073.63;5023125;28;19939;-37
2023/03/25 02:34:07;;;;;;;;;;;;;;;2.46;88.62;93081.63;5044290;28;19948;-37
2023/03/25 02:36:56;;;;;;;;;;;;;;;2.33;89.76;93063.16;5020180;28;19934;-37
2023/03/25 02:39:21;;;;;;;;;;;;;;;2.41;91.08;93074.97;5059698;28;19986;-37
2023/03/25 02:41:49;;;;;;;;;;;;;;;2.42;90.14;93070.28;5023042;28;19968;-37
2023/03/25 02:44:29;;;;;;;;;;;;;;;2.48;90.49;93073.69;5049021;28;19927;-37
2023/03/25 02:46:55;;;;;;;;;;;;;;;2.61;87.94;93066.44;5021421;28;19948;-37
2023/03/25 02:49:24;;;;;;;;;;;;;;;2.76;87.80;93058.63;5024171;28;19930;-37
2023/03/25 02:51:54;;;;;;;;;;;;;;;2.66;88.07;93056.72;5030426;28;20399;-37
2023/03/25 02:54:20;;;;;;;;;;;;;;;2.52;88.57;93058.56;5019449;28;20373;-37
2023/03/25 02:56:46;;;;;;;;;;;;;;;2.91;87.05;93050.06;5055119;28;20014;-37
2023/03/25 02:59:13;;;;;;;;;;;;;;;2.53;87.44;93053.84;5059079;28;20763;-37
2023/03/25 03:01:38;;;;;;;;;;;;;;;2.35;88.39;93047.03;5049023;28;19963;-37
2023/03/25 03:04:04;;;;;;;;;;;;;;;2.02;89.63;93052.66;5026154;28;20305;-37
2023/03/25 03:06:29;;;;;;;;;;;;;;;2.19;89.63;93042.41;5022035;28;20018;-37
2023/03/25 03:09:13;;;;;;;;;;;;;;;2.18;89.99;93038.97;5028270;28;19938;-37
2023/03/25 03:11:41;;;;;;;;;;;;;;;1.91;91.48;93039.84;5027462;28;19932;-37
2023/03/25 03:14:25;;;;;;;;;;;;;;;2.21;91.37;93034.47;5023981;28;19933;-37
2023/03/25 03:16:57;;;;;;;;;;;;;;;2.18;91.05;93040.97;5022868;28;19939;-37
2023/03/25 03:19:22;;;;;;;;;;;;;;;2.38;90.13;93035.13;5056122;28;20438;-37
2023/03/25 03:21:55;;;;;;;;;;;;;;;2.17;89.43;93034.00;5021213;28;19935;-37
2023/03/25 03:24:40;;;;;;;;;;;;;;;2.13;90.03;93033.56;5057170;28;20057;-37
2023/03/25 03:27:06;;;;;;;;;;;;;;;2.31;89.45;93038.41;5022436;28;19931;-37
2023/03/25 03:29:33;;;;;;;;;;;;;;;2.05;88.99;93043.50;5018185;28;19941;-37
2023/03/25 03:31:58;;;;;;;;;;;;;;;2.25;88.69;93035.69;5021469;28;20331;-37
2023/03/25 03:34:29;;;;;;;;;;;;;;;2.14;88.19;93037.75;5024571;28;19943;-37
2023/03/25 03:36:54;;;;;;;;;;;;;;;2.26;88.80;93039.16;5055603;28;19933;-37
2023/03/25 03:39:34;;;;;;;;;;;;;;;2.25;88.42;93040.41;5027013;28;19972;-37
2023/03/25 03:42:00;;;;;;;;;;;;;;;2.35;88.22;93043.56;5016742;28;19945;-37
2023/03/25 03:44:28;;;;;;;;;;;;;;;2.36;86.76;93039.59;5057954;28;19938;-37
2023/03/25 03:46:53;;;;;;;;;;;;;;;2.06;87.70;93043.00;5024683;28;19939;-37
2023/03/25 03:49:20;;;;;;;;;;;;;;;2.09;89.13;93033.09;5016913;28;19936;-37
2023/03/25 03:51:48;;;;;;;;;;;;;;;2.02;87.88;93047.22;5021910;28;19928;-37
2023/03/25 03:54:24;;;;;;;;;;;;;;;1.88;89.39;93046.31;5021109;28;20090;-37
2023/03/25 03:56:54;;;;;;;;;;;;;;;2.00;88.10;93044.25;5057327;28;19940;-37
2023/03/25 03:59:24;;;;;;;;;;;;;;;2.08;89.22;93043.22;5024771;28;19985;-37
2023/03/25 04:01:52;;;;;;;;;;;;;;;2.05;87.72;93038.06;5023827;28;20044;-37
2023/03/25 04:04:19;;;;;;;;;;;;;;;2.13;87.84;93034.28;5023375;28;20404;-37
2023/03/25 04:06:45;;;;;;;;;;;;;;;2.02;87.62;93041.78;5050044;28;19933;-37
2023/03/25 04:09:17;;;;;;;;;;;;;;;2.02;87.82;93033.59;5017554;28;20484;-37
2023/03/25 04:11:43;;;;;;;;;;;;;;;1.93;88.56;93037.38;5016297;28;19932;-37
2023/03/25 04:14:09;;;;;;;;;;;;;;;2.03;88.19;93035.84;5047495;28;20014;-37
2023/03/25 04:16:36;;;;;;;;;;;;;;;1.92;88.39;93040.59;5051255;28;20531;-37
2023/03/25 04:19:02;;;;;;;;;;;;;;;2.10;87.64;93045.47;5017485;28;20464;-37
2023/03/25 04:21:28;;;;;;;;;;;;;;;1.81;87.95;93037.94;5023478;28;19974;-37
2023/03/25 04:23:54;;;;;;;;;;;;;;;1.75;88.84;93046.13;5021572;28;20433;-37
2023/03/25 04:26:20;;;;;;;;;;;;;;;1.56;89.22;93047.22;5023695;28;20084;-37
2023/03/25 04:28:45;;;;;;;;;;;;;;;1.64;89.84;93048.91;5023964;28;19933;-37
2023/03/25 04:31:14;;;;;;;;;;;;;;;1.54;90.31;93058.56;5020626;28;20002;-37
2023/03/25 04:33:39;;;;;;;;;;;;;;;1.57;89.26;93057.56;5053969;28;19939;-37
2023/03/25 04:36:05;;;;;;;;;;;;;;;1.73;89.50;93061.47;5019811;28;19943;-37
2023/03/25 04:38:30;;;;;;;;;;;;;;;1.73;89.40;93067.66;5023278;28;20347;-37
2023/03/25 04:40:57;;;;;;;;;;;;;;;1.66;90.33;93062.00;5019420;28;19948;-37
2023/03/25 04:43:22;;;;;;;;;;;;;;;1.78;89.81;93061.44;5021772;28;19941;-37
2023/03/25 04:45:52;;;;;;;;;;;;;;;1.62;90.49;93061.53;5019206;28;19944;-37
2023/03/25 04:48:23;;;;;;;;;;;;;;;1.73;91.42;93070.38;5048675;28;19938;-37
2023/03/25 04:50:50;;;;;;;;;;;;;;;1.87;90.43;93063.88;5053760;28;19943;-37
2023/03/25 04:53:16;;;;;;;;;;;;;;;1.78;89.03;93063.41;5017938;28;20031;-37
2023/03/25 04:55:46;;;;;;;;;;;;;;;1.90;89.26;93059.44;5022224;28;19936;-37
2023/03/25 04:58:12;;;;;;;;;;;;;;;1.94;88.77;93062.63;5028094;28;20041;-37
2023/03/25 05:00:37;;;;;;;;;;;;;;;2.11;86.44;93068.72;5021580;28;20684;-37
2023/03/25 05:03:02;;;;;;;;;;;;;;;1.96;86.60;93069.03;5023767;28;19938;-37
2023/03/25 05:05:28;;;;;;;;;;;;;;;2.13;86.66;93063.50;5021875;28;19941;-37
2023/03/25 05:07:54;;;;;;;;;;;;;;;2.20;86.04;93071.16;5015706;28;19947;-37
2023/03/25 05:10:20;;;;;;;;;;;;;;;2.27;86.62;93068.63;5017659;28;19941;-37
2023/03/25 05:12:45;;;;;;;;;;;;;;;2.54;85.55;93063.50;5017466;28;19986;-37
2023/03/25 05:15:11;;;;;;;;;;;;;;;2.70;84.97;93071.56;5016208;28;20003;-37
2023/03/25 05:17:37;;;;;;;;;;;;;;;2.68;86.60;93062.41;5016682;28;19934;-37
2023/03/25 05:20:05;;;;;;;;;;;;;;;2.71;85.98;93069.56;5021577;28;19933;-37
2023/03/25 05:22:30;;;;;;;;;;;;;;;2.54;87.21;93066.97;5019871;28;19943;-37
2023/03/25 05:24:55;;;;;;;;;;;;;;;2.66;87.72;93065.66;5024295;28;19983;-37
2023/03/25 05:27:21;;;;;;;;;;;;;;;3.28;85.48;93065.84;5019666;28;20898;-37
2023/03/25 05:29:46;;;;;;;;;;;;;;;3.41;84.83;93071.44;5020866;28;19935;-37
2023/03/25 05:32:17;;;;;;;;;;;;;;;3.42;83.77;93072.91;5017145;28;20025;-37
2023/03/25 05:34:45;;;;;;;;;;;;;;;3.74;83.82;93074.56;5018186;28;19985;-37
2023/03/25 05:37:11;;;;;;;;;;;;;;;4.48;81.35;93068.38;5022349;28;20035;-37
2023/03/25 05:39:37;;;;;;;;;;;;;;;4.83;78.72;93069.38;5019834;28;19942;-37
2023/03/25 05:42:02;;;;;;;;;;;;;;;5.50;77.86;93066.97;5022876;28;19935;-37
2023/03/25 05:44:28;;;;;;;;;;;;;;;5.69;76.40;93064.16;5014889;28;19939;-37
2023/03/25 05:46:53;;;;;;;;;;;;;;;5.98;75.12;93066.59;5024052;28;20285;-37
2023/03/25 05:49:18;;;;;;;;;;;;;;;6.23;75.25;93069.13;5019725;28;19933;-37
2023/03/25 05:51:44;;;;;;;;;;;;;;;6.43;75.66;93062.97;5020826;28;20035;-37
2023/03/25 05:54:12;;;;;;;;;;;;;;;6.31;74.76;93067.94;5018741;28;19943;-38
2023/03/25 05:56:37;;;;;;;;;;;;;;;6.70;74.66;93058.88;5019418;28;19932;-37
2023/03/25 05:59:03;;;;;;;;;;;;;;;7.56;71.19;93053.03;5021337;28;19957;-37
2023/03/25 06:01:29;;;;;;;;;;;;;;;7.68;70.34;93062.47;5017999;28;19969;-37
2023/03/25 06:03:54;;;;;;;;;;;;;;;7.49;71.92;93056.47;5016187;28;19976;-38
2023/03/25 06:06:20;;;;;;;;;;;;;;;7.65;73.34;93060.78;5016746;28;19933;-37
2023/03/25 06:08:46;;;;;;;;;;;;;;;8.49;70.90;93053.75;5016553;28;20487;-38
2023/03/25 06:11:14;;;;;;;;;;;;;;;9.29;66.88;93057.81;5017623;28;20342;-37
2023/03/25 06:13:40;;;;;;;;;;;;;;;9.85;66.81;93054.66;5018776;28;20006;-38
2023/03/25 06:16:08;;;;;;;;;;;;;;;10.79;63.08;93045.00;5019220;28;19935;-37
2023/03/25 06:18:34;;;;;;;;;;;;;;;11.82;59.30;93051.72;5017356;28;19953;-37
2023/03/25 06:21:00;;;;;;;;;;;;;;;13.20;55.24;93039.28;5017161;28;20031;-37
2023/03/25 06:23:26;;;;;;;;;;;;;;;14.09;52.90;93043.97;5022658;28;20024;-38
2023/03/25 06:25:52;;;;;;;;;;;;;;;15.06;50.54;93040.66;5016450;28;19964;-38
2023/03/25 06:28:18;;;;;;;;;;;;;;;15.42;48.24;93042.50;5018904;28;19917;-38
2023/03/25 06:30:44;;;;;;;;;;;;;;;16.83;44.78;93043.66;5016502;28;20317;-38
2023/03/25 06:33:09;;;;;;;;;;;;;;;17.37;44.18;93035.94;5023825;28;20317;-38
2023/03/25 06:35:35;;;;;;;;;;;;;;;18.07;41.22;93036.75;5026316;28;19921;-38
2023/03/25 06:38:00;;;;;;;;;;;;;;;17.82;40.28;93045.03;5014806;28;19950;-38
2023/03/25 06:40:26;;;;;;;;;;;;;;;19.37;38.93;93052.03;5021392;28;19920;-38
2023/03/25 06:42:51;;;;;;;;;;;;;;;21.08;36.36;93049.06;5023366;28;19917;-38
2023/03/25 06:45:16;;;;;;;;;;;;;;;22.06;34.35;93050.22;5021143;28;19917;-38
2023/03/25 06:47:42;;;;;;;;;;;;;;;23.12;32.83;93044.97;5023529;28;19913;-38
2023/03/25 06:50:07;;;;;;;;;;;;;;;23.72;29.97;93050.25;5019778;28;20438;-38
2023/03/25 06:52:33;;;;;;;;;;;;;;;23.30;30.99;93045.72;5020010;28;19918;-38
2023/03/25 06:54:58;;;;;;;;;;;;;;;21.71;31.84;93047.91;5022669;28;19927;-36
2023/03/25 06:57:23;;;;;;;;;;;;;;;22.81;31.83;93053.50;5018714;28;19933;-38
2023/03/25 06:59:48;;;;;;;;;;;;;;;24.75;30.11;93052.03;5017560;28;19954;-39
2023/03/25 07:02:14;;;;;;;;;;;;;;;25.23;28.58;93058.63;5046846;28;20022;-38
2023/03/25 07:04:40;;;;;;;;;;;;;;;26.37;26.73;93052.38;5018654;28;19947;-38
2023/03/25 07:07:05;;;;;;;;;;;;;;;26.87;25.15;93055.94;5021991;28;20069;-39
2023/03/25 07:09:31;;;;;;;;;;;;;;;26.85;26.26;93058.72;5020095;28;19930;-38
2023/03/25 07:11:56;;;;;;;;;;;;;;;26.79;26.39;93058.56;5017721;28;20422;-38
2023/03/25 07:14:21;;;;;;;;;;;;;;;26.71;25.21;93061.84;5021591;28;19990;-38
2023/03/25 07:16:47;;;;;;;;;;;;;;;24.90;26.52;93055.34;5017450;28;19933;-38
2023/03/25 07:19:12;;;;;;;;;;;;;;;23.78;27.37;93050.47;5018115;28;19941;-38
2023/03/25 07:21:37;;;;;;;;;;;;;;;23.83;27.45;93043.63;5015807;28;20425;-38
2023/03/25 07:24:03;;;;;;;;;;;;;;;24.44;27.29;93045.94;5024105;28;19952;-38
2023/03/25 07:26:28;;;;;;;;;;;;;;;24.39;27.35;93047.88;5016691;28;20403;-38
2023/03/25 07:28:53;;;;;;;;;;;;;;;25.98;26.92;93047.66;5016232;28;20325;-38
2023/03/25 07:31:19;;;;;;;;;;;;;;;26.23;24.52;93043.44;5019057;28;19937;-38
2023/03/25 07:33:44;;;;;;;;;;;;;;;25.49;25.34;93039.03;5021415;28;20033;-37
2023/03/25 07:36:10;;;;;;;;;;;;;;;26.27;25.25;93037.91;5017654;28;19959;-38
2023/03/25 07:38:35;;;;;;;;;;;;;;;26.51;26.17;93026.56;5018633;28;20388;-38
2023/03/25 07:41:07;;;;;;;;;;;;;;;27.19;24.71;93028.44;5012744;28;19946;-38
2023/03/25 07:43:33;;;;;;;;;;;;;;;27.85;24.03;93032.22;5013462;28;19937;-42
2023/03/25 07:45:58;;;;;;;;;;;;;;;28.81;23.57;93030.06;5013274;28;19941;-42
2023/03/25 07:48:23;;;;;;;;;;;;;;;26.94;24.27;93037.72;5013448;28;19944;-42
2023/03/25 07:50:49;;;;;;;;;;;;;;;28.99;23.45;93036.09;5009237;28;19981;-42
2023/03/25 07:53:15;;;;;;;;;;;;;;;29.50;22.17;93034.94;5012907;28;19940;-42
2023/03/25 07:55:40;;;;;;;;;;;;;;;29.26;22.15;93031.66;5013839;28;19940;-42
2023/03/25 07:58:05;;;;;;;;;;;;;;;29.46;22.31;93029.88;5014597;28;20593;-42
2023/03/25 08:00:30;;;;;;;;;;;;;;;29.16;22.40;93021.53;5013274;28;19967;-42
2023/03/25 08:02:56;;;;;;;;;;;;;;;30.08;21.44;93027.34;5009375;28;19933;-42
2023/03/25 08:05:21;;;;;;;;;;;;;;;30.17;20.25;93026.03;5017861;28;20458;-43
2023/03/25 08:07:47;;;;;;;;;;;;;;;30.79;20.55;93020.50;5017458;28;19939;-42
2023/03/25 08:10:15;;;;;;;;;;;;;;;30.86;21.29;93019.19;5016660;28;19932;-42
2023/03/25 08:12:42;;;;;;;;;;;;;;;31.30;20.23;93013.94;5021017;28;20182;-42
2023/03/25 08:15:08;;;;;;;;;;;;;;;31.73;19.30;93022.94;5017946;28;19938;-42
2023/03/25 08:17:33;;;;;;;;;;;;;;;31.15;20.71;93020.19;5021151;28;19926;-42
2023/03/25 08:19:59;;;;;;;;;;;;;;;31.69;20.32;93012.19;5022881;28;20471;-42
2023/03/25 08:22:26;;;;;;;;;;;;;;;32.10;19.50;93007.50;5015415;28;20455;-42
2023/03/25 08:24:51;;;;;;;;;;;;;;;32.35;19.34;92997.69;5008420;28;20473;-42
2023/03/25 08:27:16;;;;;;;;;;;;;;;31.38;20.28;92994.03;5015131;28;19938;-42
2023/03/25 08:29:42;;;;;;;;;;;;;;;31.07;20.02;93003.00;5015339;28;19978;-42
2023/03/25 08:32:08;;;;;;;;;;;;;;;30.86;20.45;93001.31;5012290;28;19941;-42
2023/03/25 08:34:38;;;;;;;;;;;;;;;30.81;19.77;93003.41;5014961;28;19933;-42
2023/03/25 08:37:04;;;;;;;;;;;;;;;30.15;20.71;92996.84;5016071;28;19968;-42
2023/03/25 08:39:38;;;;;;;;;;;;;;;31.94;20.74;93001.69;5012971;28;20720;-42
2023/03/25 08:42:03;;;;;;;;;;;;;;;31.74;20.05;92998.66;5017490;28;20610;-42
2023/03/25 08:44:29;;;;;;;;;;;;;;;31.44;19.58;92993.41;5012342;28;19942;-42
2023/03/25 08:46:54;;;;;;;;;;;;;;;31.22;22.21;92996.03;5012663;28;20008;-42
2023/03/25 08:49:19;;;;;;;;;;;;;;;31.19;20.12;92991.72;5013114;28;20393;-42
2023/03/25 08:51:45;;;;;;;;;;;;;;;31.47;20.78;92989.16;5015704;28;19938;-42
2023/03/25 08:54:10;;;;;;;;;;;;;;;31.11;19.94;92980.94;5015315;28;19937;-42
2023/03/25 08:56:36;;;;;;;;;;;;;;;30.55;21.78;92978.16;5015975;28;19932;-42
2023/03/25 08:59:01;;;;;;;;;;;;;;;31.03;20.71;92980.88;5010930;28;19947;-42
2023/03/25 09:01:26;;;;;;;;;;;;;;;31.89;19.74;92977.34;5008517;28;20028;-42
2023/03/25 09:03:52;;;;;;;;;;;;;;;30.95;21.65;92972.22;5009515;28;20427;-42
2023/03/25 09:06:18;;;;;;;;;;;;;;;32.08;20.20;92976.09;5014241;28;19940;-42
2023/03/25 09:08:43;;;;;;;;;;;;;;;32.41;19.89;92969.13;5015031;28;19935;-42
2023/03/25 09:11:08;;;;;;;;;;;;;;;33.03;19.70;92962.97;5019755;28;19938;-42
2023/03/25 09:13:34;;;;;;;;;;;;;;;33.64;18.97;92966.66;5014936;28;19948;-43
2023/03/25 09:15:59;;;;;;;;;;;;;;;33.61;19.06;92963.06;5020883;28;19947;-43
2023/03/25 09:18:24;;;;;;;;;;;;;;;33.44;19.41;92969.50;5015322;28;19967;-43
2023/03/25 09:20:50;;;;;;;;;;;;;;;32.79;18.70;92957.19;5027806;28;20022;-43
2023/03/25 09:23:16;;;;;;;;;;;;;;;32.00;20.50;92962.47;5012895;28;19936;-43
2023/03/25 09:25:42;;;;;;;;;;;;;;;33.61;18.63;92948.06;5018850;28;20339;-43
2023/03/25 09:28:07;;;;;;;;;;;;;;;33.23;18.23;92945.13;5019777;28;19941;-43
2023/03/25 09:30:32;;;;;;;;;;;;;;;33.93;18.89;92945.19;5028659;28;19949;-43
2023/03/25 09:32:58;;;;;;;;;;;;;;;34.51;17.74;92949.38;5031204;28;20019;-43
2023/03/25 09:35:23;;;;;;;;;;;;;;;33.18;18.43;92944.41;5041020;28;19935;-43
2023/03/25 09:37:48;;;;;;;;;;;;;;;34.12;16.26;92946.59;5020639;28;20157;-43
2023/03/25 09:40:15;;;;;;;;;;;;;;;33.73;16.55;92930.88;5015018;28;20003;-43
2023/03/25 09:42:40;;;;;;;;;;;;;;;32.28;19.45;92935.47;5013570;28;19947;-43
2023/03/25 09:45:24;;;;;;;;;;;;;;;31.57;20.07;92934.31;5012737;28;19927;-43
2023/03/25 09:47:50;;;;;;;;;;;;;;;29.70;21.55;92944.19;5013434;28;19939;-43
2023/03/25 09:50:15;;;;;;;;;;;;;;;29.91;22.83;92938.13;5014076;28;19995;-43
2023/03/25 09:52:44;;;;;;;;;;;;;;;31.12;21.28;92928.19;5012303;28;20020;-43
2023/03/25 09:55:10;;;;;;;;;;;;;;;31.68;20.47;92921.53;5012179;28;20035;-43
2023/03/25 09:57:40;;;;;;;;;;;;;;;32.57;21.11;92914.91;5048026;28;19983;-43
2023/03/25 10:00:05;;;;;;;;;;;;;;;33.03;20.09;92910.78;5014904;28;19966;-43
2023/03/25 10:02:51;;;;;;;;;;;;;;;32.98;19.17;92904.31;5020433;28;19981;-43
2023/03/25 10:05:19;;;;;;;;;;;;;;;33.52;18.53;92907.28;5022029;28;19930;-43
2023/03/25 10:08:03;;;;;;;;;;;;;;;33.93;17.91;92907.94;5019850;28;20417;-43
2023/03/25 10:10:37;;;;;;;;;;;;;;;32.08;18.49;92908.25;5021478;28;19934;-43
2023/03/25 10:13:10;;;;;;;;;;;;;;;30.58;20.65;92901.97;5022633;28;20393;-43
2023/03/25 10:15:44;;;;;;;;;;;;;;;29.26;21.17;92900.84;5020227;28;19932;-43
2023/03/25 10:18:16;;;;;;;;;;;;;;;29.00;21.24;92901.13;5021698;28;20392;-43
2023/03/25 10:20:48;;;;;;;;;;;;;;;29.31;22.43;92891.69;5015944;28;20405;-43
2023/03/25 10:23:33;;;;;;;;;;;;;;;30.57;21.25;92891.97;5017713;28;19924;-42
2023/03/25 10:26:00;;;;;;;;;;;;;;;30.67;19.63;92884.25;5020658;28;19944;-43
2023/03/25 10:28:32;;;;;;;;;;;;;;;31.05;22.16;92871.81;5013672;28;19988;-43
2023/03/25 10:30:59;;;;;;;;;;;;;;;32.01;19.90;92875.38;5048102;28;20477;-43
2023/03/25 10:33:27;;;;;;;;;;;;;;;32.34;19.89;92864.81;5019255;28;20332;-43
2023/03/25 10:35:52;;;;;;;;;;;;;;;32.44;20.24;92861.28;5021869;28;19934;-43
2023/03/25 10:38:19;;;;;;;;;;;;;;;32.50;20.31;92864.88;5022598;28;19952;-42
2023/03/25 10:40:51;;;;;;;;;;;;;;;33.40;19.08;92860.72;5023261;28;19936;-42
2023/03/25 10:43:20;;;;;;;;;;;;;;;33.11;19.30;92859.31;5018248;28;19929;-43
2023/03/25 10:45:45;;;;;;;;;;;;;;;33.26;17.46;92847.16;5022605;28;19986;-43
2023/03/25 10:48:15;;;;;;;;;;;;;;;33.17;19.28;92850.72;5050279;28;20422;-43
2023/03/25 10:50:40;;;;;;;;;;;;;;;34.30;16.90;92846.25;5020745;28;19933;-42
2023/03/25 10:53:06;;;;;;;;;;;;;;;33.37;20.67;92847.84;5052981;28;20430;-43
2023/03/25 10:55:33;;;;;;;;;;;;;;;32.48;17.95;92838.44;5049217;28;20028;-43
2023/03/25 10:57:58;;;;;;;;;;;;;;;31.65;20.05;92837.31;5021212;28;19951;-43
2023/03/25 11:00:25;;;;;;;;;;;;;;;31.61;20.37;92834.44;5056197;28;19978;-43
2023/03/25 11:02:50;;;;;;;;;;;;;;;30.58;21.49;92836.44;5021371;28;19933;-43
2023/03/25 11:05:17;;;;;;;;;;;;;;;31.97;21.95;92823.22;5015299;28;19945;-43
2023/03/25 11:07:52;;;;;;;;;;;;;;;31.70;19.31;92818.81;5054116;28;19930;-43
2023/03/25 11:10:24;;;;;;;;;;;;;;;31.93;19.62;92817.47;5039504;28;19941;-43
2023/03/25 11:12:51;;;;;;;;;;;;;;;30.86;20.27;92816.03;5024409;28;20480;-43
2023/03/25 11:15:29;;;;;;;;;;;;;;;31.64;20.49;92810.22;5023183;28;19936;-43
2023/03/25 11:17:56;;;;;;;;;;;;;;;32.35;20.04;92808.38;5022890;28;20022;-43
2023/03/25 11:20:25;;;;;;;;;;;;;;;32.05;18.62;92803.97;5023655;28;19929;-43
2023/03/25 11:22:50;;;;;;;;;;;;;;;32.04;19.26;92799.72;5034618;28;19942;-43
2023/03/25 11:25:29;;;;;;;;;;;;;;;32.18;19.58;92802.59;5032384;28;19939;-43
2023/03/25 11:27:55;;;;;;;;;;;;;;;32.05;19.98;92789.00;5027673;28;19931;-43
2023/03/25 11:30:22;;;;;;;;;;;;;;;32.28;19.98;92790.50;5061389;28;19964;-43
2023/03/25 11:32:55;;;;;;;;;;;;;;;31.63;19.86;92783.06;5062588;28;19962;-44
2023/03/25 11:35:21;;;;;;;;;;;;;;;31.36;18.84;92774.34;5022871;28;20004;-43
2023/03/25 11:37:48;;;;;;;;;;;;;;;30.81;20.35;92780.34;5028493;28;19921;-42
2023/03/25 11:40:17;;;;;;;;;;;;;;;29.79;21.50;92775.75;5027033;28;20397;-43
2023/03/25 11:42:48;;;;;;;;;;;;;;;29.22;20.87;92785.66;5026640;28;20011;-42
2023/03/25 11:45:44;;;;;;;;;;;;;;;27.65;22.29;92773.63;5032839;28;19996;-43
2023/03/25 11:48:16;;;;;;;;;;;;;;;27.34;22.59;92766.59;5028648;28;19959;-43
2023/03/25 11:50:51;;;;;;;;;;;;;;;27.80;24.19;92769.69;5028773;28;20437;-43
2023/03/25 11:53:17;;;;;;;;;;;;;;;28.59;22.81;92765.47;5023426;28;19924;-43
2023/03/25 11:55:53;;;;;;;;;;;;;;;29.14;22.14;92756.34;5057914;28;19955;-38
2023/03/25 11:58:20;;;;;;;;;;;;;;;29.23;21.59;92749.41;5053835;28;20425;-38
2023/03/25 12:00:50;;;;;;;;;;;;;;;28.59;22.74;92751.28;5016915;28;20402;-38
2023/03/25 12:03:25;;;;;;;;;;;;;;;28.28;22.47;92750.00;5022524;28;19929;-38
2023/03/25 12:05:57;;;;;;;;;;;;;;;28.81;22.09;92745.91;5047785;28;19992;-38
2023/03/25 12:08:23;;;;;;;;;;;;;;;28.34;22.61;92739.47;5016725;28;19942;-38
2023/03/25 12:11:04;;;;;;;;;;;;;;;27.49;22.52;92740.00;5020515;28;19917;-38
2023/03/25 12:13:42;;;;;;;;;;;;;;;27.35;23.20;92739.72;5024911;28;20066;-38
2023/03/25 12:16:17;;;;;;;;;;;;;;;26.13;24.85;92734.75;5020485;28;19935;-38
2023/03/25 12:19:01;;;;;;;;;;;;;;;25.38;26.84;92734.81;5048723;28;20005;-38
2023/03/25 12:21:26;;;;;;;;;;;;;;;25.04;25.63;92726.06;5025319;28;19968;-38
2023/03/25 12:24:00;;;;;;;;;;;;;;;25.23;26.81;92733.69;5022367;28;19937;-38
2023/03/25 12:26:42;;;;;;;;;;;;;;;25.87;25.65;92731.22;5027613;28;20477;-38
2023/03/25 12:29:19;;;;;;;;;;;;;;;26.04;24.13;92724.56;5022262;28;19981;-38
2023/03/25 12:31:44;;;;;;;;;;;;;;;25.94;23.42;92724.31;5042166;28;19931;-38
2023/03/25 12:34:28;;;;;;;;;;;;;;;25.30;24.89;92724.00;5026389;28;19937;-38
2023/03/25 12:37:00;;;;;;;;;;;;;;;24.98;24.95;92720.25;5024805;28;19943;-38
2023/03/25 12:39:35;;;;;;;;;;;;;;;24.77;25.31;92715.41;5027080;28;20048;-38
2023/03/25 12:42:07;;;;;;;;;;;;;;;24.25;25.56;92711.66;5032706;28;19938;-38
2023/03/25 12:44:45;;;;;;;;;;;;;;;23.91;26.64;92727.41;5027450;28;19924;-38
2023/03/25 12:47:11;;;;;;;;;;;;;;;23.53;30.07;92717.66;5051849;28;19955;-38
2023/03/25 12:49:42;;;;;;;;;;;;;;;23.46;29.06;92718.81;5027684;28;19977;-38
2023/03/25 12:52:23;;;;;;;;;;;;;;;23.23;29.88;92720.13;5053912;28;20026;-38
2023/03/25 12:54:55;;;;;;;;;;;;;;;23.11;29.81;92714.03;5026565;28;20077;-38
2023/03/25 12:57:31;;;;;;;;;;;;;;;22.83;31.40;92724.25;5032105;28;20027;-42